Time;durP1;ratioP1;P1;durP2;ratioP2;P2;SDS_P1;SDS_P2;PMS_P1;PMS_P2;Temp;Humidity;BMP_temperature;BMP_pressure;BME280_temperature;BME280_humidity;BME280_pressure;Samples;Min_cycle;Max_cycle;Signal;HPM_P1;HPM_P2
2022/05/31 00:00:10;;;;;;;12.48;8.60;;;15.20;99.90;;;;;;5252937;28;20728;-77
2022/05/31 00:02:42;;;;;;;14.38;9.25;;;15.20;99.90;;;;;;5271183;28;20107;-76
2022/05/31 00:05:14;;;;;;;13.68;9.23;;;15.10;99.90;;;;;;5270959;28;20454;-78
2022/05/31 00:07:44;;;;;;;18.95;9.80;;;15.30;99.90;;;;;;5271129;28;20054;-78
2022/05/31 00:10:15;;;;;;;13.88;8.60;;;15.10;99.90;;;;;;5271178;28;20024;-78
2022/05/31 00:12:47;;;;;;;13.85;8.30;;;15.20;99.90;;;;;;5270889;28;20118;-77
2022/05/31 00:15:20;;;;;;;14.20;8.60;;;15.10;99.90;;;;;;5271004;28;20032;-78
2022/05/31 00:17:50;;;;;;;16.63;8.77;;;15.30;99.90;;;;;;5270789;28;20081;-78
2022/05/31 00:20:21;;;;;;;18.55;8.93;;;15.30;99.90;;;;;;5270565;28;20483;-78
2022/05/31 00:22:52;;;;;;;16.15;9.52;;;15.10;99.90;;;;;;5270763;28;20035;-78
2022/05/31 00:25:23;;;;;;;19.10;8.55;;;15.30;99.90;;;;;;5270797;28;20059;-78
2022/05/31 00:27:54;;;;;;;15.23;7.85;;;15.00;99.90;;;;;;5270712;28;20028;-78
2022/05/31 00:30:25;;;;;;;17.48;9.80;;;14.70;99.90;;;;;;5270656;28;20039;-78
2022/05/31 00:32:56;;;;;;;11.38;8.32;;;15.00;99.90;;;;;;5270433;28;20384;-77
2022/05/31 00:35:30;;;;;;;14.15;8.27;;;15.10;99.90;;;;;;5270520;28;20023;-78
2022/05/31 00:38:01;;;;;;;10.13;7.55;;;15.00;99.90;;;;;;5270440;28;20024;-77
2022/05/31 00:40:34;;;;;;;12.57;8.30;;;14.50;99.90;;;;;;5270336;28;20062;-77
2022/05/31 00:43:22;;;;;;;14.60;9.25;;;14.60;99.90;;;;;;5270520;28;20021;-77
2022/05/31 00:45:58;;;;;;;13.18;9.23;;;14.70;99.90;;;;;;5270238;28;20517;-77
2022/05/31 00:48:38;;;;;;;10.70;8.35;;;15.00;99.90;;;;;;5270466;28;20065;-78
2022/05/31 00:51:13;;;;;;;14.23;8.93;;;14.60;99.90;;;;;;5270119;28;20028;-78
2022/05/31 00:53:53;;;;;;;22.95;8.98;;;14.20;99.90;;;;;;5270148;28;20426;-78
2022/05/31 00:56:27;;;;;;;14.55;8.23;;;14.70;99.90;;;;;;5251449;28;20028;-78
2022/05/31 00:59:05;;;;;;;13.50;9.23;;;14.30;99.90;;;;;;5269874;28;20043;-78
2022/05/31 01:01:39;;;;;;;14.80;9.48;;;14.60;99.90;;;;;;5269848;28;20062;-78
2022/05/31 01:04:10;;;;;;;15.05;9.63;;;14.50;99.90;;;;;;5269796;28;20117;-78
2022/05/31 01:06:41;;;;;;;14.48;8.60;;;14.90;99.90;;;;;;5270000;28;20030;-78
2022/05/31 01:09:13;;;;;;;13.60;8.30;;;14.50;99.90;;;;;;5269919;28;20476;-79
2022/05/31 01:11:44;;;;;;;15.65;8.13;;;14.60;99.90;;;;;;5269848;28;20122;-78
2022/05/31 01:14:14;;;;;;;14.45;8.52;;;14.60;99.90;;;;;;5269535;28;20120;-77
2022/05/31 01:16:55;;;;;;;10.27;8.30;;;14.40;99.90;;;;;;5269663;28;20020;-78
2022/05/31 01:22:16;;;;;;;15.27;7.37;;;14.70;99.90;;;;;;5269872;28;20054;-77
2022/05/31 01:25:23;;;;;;;13.75;7.85;;;14.60;99.90;;;;;;5269430;28;20028;-78
2022/05/31 01:28:28;;;;;;;9.93;7.20;;;14.60;99.90;;;;;;5263159;28;20032;-78
2022/05/31 01:31:25;;;;;;;10.93;7.80;;;14.50;99.90;;;;;;5269473;28;20395;-78
2022/05/31 01:34:23;;;;;;;14.30;8.20;;;14.30;99.90;;;;;;5258494;28;20094;-78
2022/05/31 01:36:56;;;;;;;11.15;7.95;;;14.30;99.90;;;;;;5269384;28;20031;-77
2022/05/31 01:39:50;;;;;;;16.05;8.55;;;14.60;99.90;;;;;;5269356;28;20491;-77
2022/05/31 01:42:36;;;;;;;12.73;7.35;;;14.60;99.90;;;;;;5269345;28;20024;-78
2022/05/31 01:45:12;;;;;;;13.82;7.43;;;14.60;99.90;;;;;;5269188;28;20491;-77
2022/05/31 01:47:43;;;;;;;15.93;7.97;;;14.40;99.90;;;;;;5269153;28;20146;-79
2022/05/31 01:50:18;;;;;;;11.65;7.80;;;14.30;99.90;;;;;;5269036;28;20024;-78
2022/05/31 01:52:51;;;;;;;15.40;8.23;;;14.20;99.90;;;;;;5269071;28;20506;-78
2022/05/31 01:55:22;;;;;;;14.05;9.43;;;14.30;99.90;;;;;;5269001;28;20420;-78
2022/05/31 01:57:58;;;;;;;14.45;8.40;;;14.30;99.90;;;;;;5269008;28;20012;-78
2022/05/31 02:00:29;;;;;;;10.77;7.72;;;14.50;99.90;;;;;;5268664;28;20487;-78
2022/05/31 02:03:03;;;;;;;12.07;8.23;;;14.50;99.90;;;;;;5268805;28;20030;-77
2022/05/31 02:05:34;;;;;;;12.98;7.25;;;14.30;99.90;;;;;;5268764;28;20028;-78
2022/05/31 02:08:05;;;;;;;10.98;7.65;;;14.40;99.90;;;;;;5268086;28;20025;-78
2022/05/31 02:10:36;;;;;;;11.15;7.32;;;14.20;99.90;;;;;;5269034;28;20403;-77
2022/05/31 02:13:07;;;;;;;10.38;7.93;;;14.10;99.90;;;;;;5268497;28;20024;-78
2022/05/31 02:15:38;;;;;;;12.10;8.40;;;14.20;99.90;;;;;;5268721;28;20070;-78
2022/05/31 02:18:14;;;;;;;15.10;8.23;;;14.20;99.90;;;;;;5268699;28;20464;-78
2022/05/31 02:20:45;;;;;;;13.23;7.32;;;14.10;99.90;;;;;;5268702;28;20025;-78
2022/05/31 02:23:16;;;;;;;12.35;7.25;;;14.30;99.90;;;;;;5268598;28;20024;-78
2022/05/31 02:25:47;;;;;;;13.40;7.80;;;14.20;99.90;;;;;;5268383;28;20468;-78
2022/05/31 02:28:18;;;;;;;10.27;7.00;;;14.10;99.90;;;;;;5268500;28;20480;-77
2022/05/31 02:30:48;;;;;;;10.15;7.38;;;14.10;99.90;;;;;;5268347;28;20376;-77
2022/05/31 02:33:19;;;;;;;12.52;7.22;;;14.00;99.90;;;;;;5268292;28;20044;-78
2022/05/31 02:35:51;;;;;;;12.02;7.47;;;14.20;99.90;;;;;;5268436;28;20024;-76
2022/05/31 02:38:22;;;;;;;7.97;7.00;;;14.00;99.90;;;;;;5268466;28;20039;-78
2022/05/31 02:40:52;;;;;;;12.75;7.50;;;14.00;99.90;;;;;;5268472;28;20012;-78
2022/05/31 02:43:24;;;;;;;12.85;7.80;;;13.80;99.90;;;;;;5268437;28;20456;-78
2022/05/31 02:45:55;;;;;;;19.60;8.23;;;13.70;99.90;;;;;;5268277;28;20145;-77
2022/05/31 02:48:26;;;;;;;11.52;8.00;;;13.90;99.90;;;;;;5268464;28;20403;-78
2022/05/31 02:50:57;;;;;;;10.82;7.47;;;14.10;99.90;;;;;;5268239;28;20020;-78
2022/05/31 02:53:29;;;;;;;12.32;7.60;;;14.00;99.90;;;;;;5268195;28;20089;-78
2022/05/31 02:56:00;;;;;;;14.55;7.95;;;13.70;99.90;;;;;;5268250;28;20092;-78
2022/05/31 02:58:31;;;;;;;11.88;8.52;;;13.70;99.90;;;;;;5250181;28;20036;-78
2022/05/31 03:01:02;;;;;;;15.57;8.52;;;14.00;99.90;;;;;;5267939;28;20511;-78
2022/05/31 03:03:33;;;;;;;14.07;7.47;;;14.00;99.90;;;;;;5268185;28;20471;-78
2022/05/31 03:06:03;;;;;;;13.52;8.07;;;13.90;99.90;;;;;;5268101;28;20073;-78
2022/05/31 03:08:34;;;;;;;15.10;8.50;;;13.90;99.90;;;;;;5268296;28;20032;-78
2022/05/31 03:11:09;;;;;;;14.18;7.60;;;13.80;99.90;;;;;;5268135;28;20016;-78
2022/05/31 03:13:42;;;;;;;14.20;8.60;;;14.00;99.90;;;;;;5250029;28;20510;-78
2022/05/31 03:16:14;;;;;;;14.27;8.15;;;14.20;99.90;;;;;;5268082;28;20024;-78
2022/05/31 03:19:02;;;;;;;10.10;8.50;;;14.20;99.90;;;;;;5269670;28;20024;-77
2022/05/31 03:21:40;;;;;;;14.70;8.20;;;14.00;99.90;;;;;;5272072;28;20391;-78
2022/05/31 03:24:16;;;;;;;10.73;7.93;;;14.20;99.90;;;;;;5272117;28;20418;-78
2022/05/31 03:26:50;;;;;;;17.08;8.85;;;14.30;99.90;;;;;;5272051;28;20382;-78
2022/05/31 03:29:21;;;;;;;12.80;8.13;;;14.40;99.90;;;;;;5271891;28;20148;-78
2022/05/31 03:31:52;;;;;;;13.57;7.90;;;14.60;99.90;;;;;;5271755;28;20090;-78
2022/05/31 03:34:23;;;;;;;11.27;7.63;;;14.70;99.90;;;;;;5253436;28;20078;-78
2022/05/31 03:36:54;;;;;;;10.80;8.32;;;14.80;99.90;;;;;;5271830;28;20027;-78
2022/05/31 03:39:25;;;;;;;12.88;7.80;;;14.90;99.90;;;;;;5271737;28;20070;-78
2022/05/31 03:41:55;;;;;;;11.30;7.18;;;14.60;99.90;;;;;;5271696;28;20506;-78
2022/05/31 03:44:26;;;;;;;11.52;8.05;;;14.80;99.90;;;;;;5271461;28;20032;-79
2022/05/31 03:46:57;;;;;;;13.70;8.15;;;14.90;99.90;;;;;;5271566;28;20016;-78
2022/05/31 03:49:28;;;;;;;13.93;8.25;;;14.90;99.90;;;;;;5271664;28;20106;-77
2022/05/31 03:51:59;;;;;;;13.75;8.98;;;14.70;99.90;;;;;;5271385;28;20024;-79
2022/05/31 03:54:30;;;;;;;13.98;8.18;;;15.00;99.90;;;;;;5271289;28;20036;-78
2022/05/31 03:57:01;;;;;;;14.63;8.32;;;15.20;99.90;;;;;;5271407;28;20046;-78
2022/05/31 03:59:39;;;;;;;12.68;7.97;;;15.20;99.90;;;;;;5253019;28;20024;-79
2022/05/31 04:02:09;;;;;;;14.32;7.75;;;15.30;99.90;;;;;;5271080;28;20047;-79
2022/05/31 04:04:40;;;;;;;14.13;8.55;;;15.40;99.90;;;;;;5271109;28;20473;-79
2022/05/31 04:07:11;;;;;;;14.40;9.30;;;15.50;99.90;;;;;;5253004;28;20114;-79
2022/05/31 04:09:41;;;;;;;12.95;8.65;;;15.40;99.90;;;;;;5271222;28;20028;-79
2022/05/31 04:12:12;;;;;;;14.90;8.80;;;15.20;99.90;;;;;;5270868;28;20030;-79
2022/05/31 04:14:43;;;;;;;16.45;9.30;;;15.30;99.90;;;;;;5270839;28;20032;-79
2022/05/31 04:17:14;;;;;;;15.65;10.00;;;15.00;99.90;;;;;;5270886;28;20020;-79
2022/05/31 04:19:45;;;;;;;14.30;9.05;;;15.40;99.90;;;;;;5270705;28;20357;-79
2022/05/31 04:22:16;;;;;;;10.93;8.15;;;15.90;99.90;;;;;;5270468;28;20573;-79
2022/05/31 04:24:46;;;;;;;15.05;8.93;;;16.00;99.90;;;;;;5270793;28;20031;-79
2022/05/31 04:27:17;;;;;;;15.15;8.43;;;16.20;99.90;;;;;;5270668;28;20024;-79
2022/05/31 04:29:48;;;;;;;14.38;8.32;;;16.40;99.90;;;;;;5269631;28;20028;-78
2022/05/31 04:32:19;;;;;;;12.43;7.28;;;16.30;99.90;;;;;;5270753;28;20025;-79
2022/05/31 04:34:52;;;;;;;10.65;8.30;;;16.50;99.90;;;;;;5270586;28;20036;-79
2022/05/31 04:37:23;;;;;;;13.07;7.45;;;16.70;99.90;;;;;;5270491;28;20031;-80
2022/05/31 04:39:53;;;;;;;10.63;7.70;;;16.80;99.90;;;;;;5270489;28;20531;-79
2022/05/31 04:42:24;;;;;;;11.98;8.30;;;16.90;99.90;;;;;;5270308;28;20103;-79
2022/05/31 04:44:55;;;;;;;11.35;8.75;;;17.10;99.90;;;;;;5270241;28;20020;-79
2022/05/31 04:47:27;;;;;;;14.30;8.63;;;17.40;99.90;;;;;;5270423;28;20028;-79
2022/05/31 04:49:58;;;;;;;16.50;10.07;;;16.90;99.90;;;;;;5270384;28;20059;-79
2022/05/31 04:52:28;;;;;;;13.30;8.95;;;17.30;99.90;;;;;;5270238;28;20064;-78
2022/05/31 04:54:59;;;;;;;14.02;8.20;;;17.70;99.90;;;;;;5270084;28;20035;-79
2022/05/31 04:57:30;;;;;;;17.80;9.13;;;17.80;99.90;;;;;;5269958;28;20103;-79
2022/05/31 05:00:02;;;;;;;18.42;9.23;;;18.00;99.90;;;;;;5251692;28;20052;-79
2022/05/31 05:02:33;;;;;;;15.07;8.93;;;18.10;99.90;;;;;;5252049;28;20016;-79
2022/05/31 05:05:04;;;;;;;10.32;8.32;;;18.20;99.90;;;;;;5269844;28;20441;-80
2022/05/31 05:07:35;;;;;;;11.57;8.93;;;18.40;99.90;;;;;;5269938;28;20024;-79
2022/05/31 05:10:08;;;;;;;11.75;8.05;;;18.70;99.90;;;;;;5269894;28;20082;-80
2022/05/31 05:12:39;;;;;;;14.70;8.68;;;18.90;99.90;;;;;;5269778;28;20017;-80
2022/05/31 05:15:10;;;;;;;15.30;8.13;;;19.20;99.90;;;;;;5269921;28;20035;-78
2022/05/31 05:17:41;;;;;;;10.43;7.43;;;19.50;99.90;;;;;;5269868;28;20487;-77
2022/05/31 05:20:11;;;;;;;14.70;7.47;;;19.70;99.90;;;;;;5269843;28;20028;-76
2022/05/31 05:22:42;;;;;;;10.32;7.10;;;20.10;99.90;;;;;;5270075;28;20080;-79
2022/05/31 05:25:13;;;;;;;12.00;6.75;;;20.30;99.90;;;;;;5269949;28;20081;-78
2022/05/31 05:27:44;;;;;;;12.13;6.68;;;20.30;99.90;;;;;;5270183;28;20024;-77
2022/05/31 05:33:04;;;;;;;14.68;8.60;;;20.70;99.90;;;;;;5270067;28;20039;-80
2022/05/31 05:35:36;;;;;;;12.45;8.40;;;20.90;99.90;;;;;;5251700;28;20547;-78
2022/05/31 05:38:07;;;;;;;17.98;8.98;;;21.00;99.90;;;;;;5269775;28;20022;-81
2022/05/31 05:40:38;;;;;;;14.80;8.25;;;21.40;99.90;;;;;;5269894;28;20024;-81
2022/05/31 05:43:09;;;;;;;13.38;7.70;;;21.20;99.90;;;;;;5269600;28;20020;-80
2022/05/31 05:45:40;;;;;;;10.95;7.28;;;21.70;99.90;;;;;;5251567;28;20496;-80
2022/05/31 05:48:11;;;;;;;14.02;8.13;;;22.20;99.90;;;;;;5269730;28;20083;-81
2022/05/31 05:50:42;;;;;;;11.13;7.38;;;22.50;99.90;;;;;;5269678;28;20040;-81
2022/05/31 05:53:13;;;;;;;9.68;6.20;;;22.40;99.90;;;;;;5268636;28;20040;-81
2022/05/31 05:55:44;;;;;;;11.40;5.88;;;22.50;99.90;;;;;;5268895;28;20024;-81
2022/05/31 05:58:15;;;;;;;9.45;6.00;;;22.80;99.90;;;;;;5268777;28;20105;-81
2022/05/31 06:00:51;;;;;;;10.63;6.13;;;22.90;99.90;;;;;;5268551;28;20044;-81
2022/05/31 06:03:29;;;;;;;9.38;5.45;;;22.90;99.90;;;;;;5268841;28;20538;-82
2022/05/31 06:06:00;;;;;;;9.60;5.40;;;23.00;99.90;;;;;;5268577;28;20036;-81
2022/05/31 06:08:35;;;;;;;8.35;5.53;;;23.20;99.90;;;;;;5268731;28;20099;-82
2022/05/31 06:11:21;;;;;;;8.45;5.13;;;23.30;99.90;;;;;;5268646;28;20515;-75
2022/05/31 06:14:00;;;;;;;7.88;5.38;;;23.20;99.90;;;;;;5268605;28;20066;-81
2022/05/31 06:16:34;;;;;;;12.55;5.40;;;23.30;99.90;;;;;;5269123;28;20092;-81
2022/05/31 06:19:11;;;;;;;9.95;5.65;;;23.40;99.90;;;;;;5269245;28;20441;-77
2022/05/31 06:21:43;;;;;;;10.23;5.25;;;23.60;99.90;;;;;;5269535;28;20367;-82
2022/05/31 06:24:16;;;;;;;11.95;5.90;;;23.60;99.90;;;;;;5269201;28;20107;-80
2022/05/31 06:26:46;;;;;;;12.23;6.22;;;23.70;99.90;;;;;;5269468;28;20027;-77
2022/05/31 06:29:17;;;;;;;10.70;5.88;;;23.80;99.90;;;;;;5269055;28;20028;-80
2022/05/31 06:31:48;;;;;;;10.15;5.85;;;23.80;99.90;;;;;;5269115;28;20020;-77
2022/05/31 06:34:19;;;;;;;8.82;5.00;;;23.90;99.90;;;;;;5268900;28;20028;-75
2022/05/31 06:37:00;;;;;;;7.80;3.90;;;24.30;99.90;;;;;;5269169;28;20365;-81
2022/05/31 06:39:35;;;;;;;6.13;3.83;;;24.00;99.90;;;;;;5269153;28;20032;-81
2022/05/31 06:42:06;;;;;;;7.35;3.80;;;24.30;99.90;;;;;;5267672;28;20031;-77
2022/05/31 06:44:39;;;;;;;6.75;4.00;;;24.40;99.90;;;;;;5268249;28;20379;-81
2022/05/31 06:47:11;;;;;;;8.23;4.40;;;24.30;99.90;;;;;;5268475;28;20024;-81
2022/05/31 06:49:42;;;;;;;6.63;3.83;;;24.60;99.90;;;;;;5276414;28;20376;-81
2022/05/31 06:57:52;;;;;;;8.20;4.00;;;24.40;99.90;;;;;;5273429;28;20422;-82
2022/05/31 07:00:23;;;;;;;6.30;3.80;;;24.30;99.90;;;;;;5279605;28;20047;-80
2022/05/31 07:02:55;;;;;;;8.23;3.72;;;24.30;99.90;;;;;;5294251;28;20100;-81
2022/05/31 07:05:26;;;;;;;11.48;3.70;;;24.70;99.90;;;;;;5293914;28;20024;-81
2022/05/31 07:07:57;;;;;;;5.35;3.72;;;24.50;99.90;;;;;;5280436;28;20028;-76
2022/05/31 07:10:28;;;;;;;10.50;3.83;;;24.80;99.90;;;;;;5275159;28;20023;-80
2022/05/31 07:12:59;;;;;;;10.75;3.80;;;24.80;99.90;;;;;;5273688;28;20118;-81
2022/05/31 07:15:31;;;;;;;6.53;3.50;;;25.00;99.90;;;;;;5272726;28;20032;-76
2022/05/31 07:18:04;;;;;;;5.20;3.38;;;25.00;99.90;;;;;;5272503;28;20028;-82
2022/05/31 07:20:35;;;;;;;6.57;3.50;;;24.90;99.90;;;;;;5286016;28;20028;-81
2022/05/31 07:23:06;;;;;;;6.47;3.22;;;25.00;99.90;;;;;;5288174;28;20028;-81
2022/05/31 07:25:37;;;;;;;10.15;3.63;;;25.00;99.90;;;;;;5293947;28;20023;-77
2022/05/31 07:28:08;;;;;;;8.50;3.33;;;25.00;99.90;;;;;;5280231;28;20460;-76
2022/05/31 07:30:39;;;;;;;9.73;4.13;;;25.10;99.90;;;;;;5272241;28;20027;-79
2022/05/31 07:33:12;;;;;;;6.25;3.30;;;25.40;99.90;;;;;;5273487;28;20032;-75
2022/05/31 07:35:43;;;;;;;11.60;3.15;;;25.40;99.90;;;;;;5272347;28;20549;-80
2022/05/31 07:38:13;;;;;;;5.03;3.42;;;25.60;99.90;;;;;;5272225;28;20028;-81
2022/05/31 07:40:44;;;;;;;25.20;4.20;;;25.40;99.90;;;;;;5272372;28;20028;-81
2022/05/31 07:43:16;;;;;;;9.30;3.45;;;25.20;99.90;;;;;;5272237;28;20043;-78
2022/05/31 07:45:46;;;;;;;7.53;3.15;;;25.30;99.90;;;;;;5272055;28;20016;-79
2022/05/31 07:48:19;;;;;;;7.03;3.20;;;25.20;99.90;;;;;;5272347;28;20353;-76
2022/05/31 07:50:50;;;;;;;7.93;3.28;;;25.20;99.90;;;;;;5271442;28;20028;-80
2022/05/31 07:53:21;;;;;;;9.02;3.63;;;25.40;99.90;;;;;;5271875;28;20094;-82
2022/05/31 07:55:56;;;;;;;5.53;3.20;;;25.30;99.90;;;;;;5272032;28;20052;-75
2022/05/31 07:58:33;;;;;;;6.65;3.30;;;25.60;99.90;;;;;;5271865;28;20042;-75
2022/05/31 08:01:16;;;;;;;5.68;2.88;;;25.60;99.90;;;;;;5271517;28;20076;-82
2022/05/31 08:03:47;;;;;;;5.07;3.08;;;25.40;99.90;;;;;;5271879;28;20032;-76
2022/05/31 08:06:23;;;;;;;5.18;2.60;;;25.80;99.90;;;;;;5270530;28;20422;-78
2022/05/31 08:08:54;;;;;;;5.38;2.95;;;25.70;99.90;;;;;;5271853;28;20402;-81
2022/05/31 08:11:28;;;;;;;6.03;2.90;;;25.60;99.90;;;;;;5271731;28;20107;-80
2022/05/31 08:14:01;;;;;;;7.22;3.28;;;25.80;99.90;;;;;;5280510;28;20429;-82
2022/05/31 08:16:34;;;;;;;5.60;3.25;;;25.90;99.90;;;;;;5292844;28;20015;-81
2022/05/31 08:19:06;;;;;;;7.78;3.33;;;26.00;99.90;;;;;;5292608;28;20027;-82
2022/05/31 08:21:36;;;;;;;6.35;3.10;;;25.80;99.90;;;;;;5292352;28;20038;-81
2022/05/31 08:24:08;;;;;;;6.55;3.10;;;26.20;99.90;;;;;;5281569;28;20028;-80
2022/05/31 08:26:39;;;;;;;7.30;3.45;;;26.10;99.90;;;;;;5271677;28;20105;-75
2022/05/31 08:29:09;;;;;;;6.80;3.22;;;26.10;99.90;;;;;;5271256;28;20028;-81
2022/05/31 08:31:40;;;;;;;7.57;2.92;;;26.20;99.90;;;;;;5271391;28;20358;-81
2022/05/31 08:34:13;;;;;;;8.52;3.33;;;26.10;99.90;;;;;;5271093;28;20544;-81
2022/05/31 08:36:44;;;;;;;7.93;3.55;;;26.10;99.90;;;;;;5271193;28;20078;-81
2022/05/31 08:39:15;;;;;;;5.63;3.35;;;26.30;99.90;;;;;;5271142;28;20078;-81
2022/05/31 08:41:48;;;;;;;4.28;3.03;;;26.20;99.90;;;;;;5271092;28;20024;-81
2022/05/31 08:44:35;;;;;;;7.80;3.30;;;26.10;99.90;;;;;;5270985;28;20024;-82
2022/05/31 08:47:38;;;;;;;7.93;3.63;;;26.10;99.90;;;;;;5271056;28;20023;-81
2022/05/31 08:53:28;;;;;;;4.55;3.00;;;25.90;99.90;;;;;;5270863;28;20051;-80
2022/05/31 08:59:14;;;;;;;6.35;3.20;;;26.30;99.90;;;;;;5271072;28;20035;-82
2022/05/31 09:01:54;;;;;;;4.70;2.55;;;26.80;99.90;;;;;;5270362;28;20423;-79
2022/05/31 09:04:37;;;;;;;5.93;2.90;;;26.70;99.90;;;;;;5270588;28;20039;-82
2022/05/31 09:07:41;;;;;;;5.68;2.50;;;26.50;99.90;;;;;;5270584;28;20028;-81
2022/05/31 09:10:25;;;;;;;6.22;2.80;;;26.40;99.90;;;;;;5266300;28;20028;-82
2022/05/31 09:13:03;;;;;;;5.05;3.00;;;26.50;99.90;;;;;;5270111;28;20035;-81
2022/05/31 09:15:44;;;;;;;7.65;2.85;;;26.50;99.90;;;;;;5270141;28;20024;-82
2022/05/31 09:18:32;;;;;;;5.95;3.38;;;26.30;99.90;;;;;;5270341;28;20081;-82
2022/05/31 09:21:08;;;;;;;7.45;3.88;;;26.80;99.90;;;;;;5270347;28;20054;-82
2022/05/31 09:23:39;;;;;;;7.97;4.30;;;26.90;99.90;;;;;;5270166;28;20028;-82
2022/05/31 09:26:42;;;;;;;6.82;3.40;;;26.70;99.90;;;;;;5270185;28;20026;-79
2022/05/31 09:29:15;;;;;;;8.77;3.60;;;26.50;99.90;;;;;;5258595;28;20019;-83
2022/05/31 09:31:58;;;;;;;6.65;3.67;;;26.70;99.90;;;;;;5289641;28;20036;-82
2022/05/31 09:34:39;;;;;;;8.10;4.10;;;26.70;99.90;;;;;;5269827;28;20519;-82
2022/05/31 09:37:21;;;;;;;7.63;3.47;;;26.40;99.90;;;;;;5270186;28;20471;-83
2022/05/31 09:40:07;;;;;;;9.57;3.67;;;26.70;99.90;;;;;;5270133;28;20452;-83
2022/05/31 09:42:53;;;;;;;7.45;4.32;;;27.00;99.90;;;;;;5269805;28;20151;-84
2022/05/31 09:45:25;;;;;;;6.93;3.40;;;27.10;99.90;;;;;;5269628;28;20024;-83
2022/05/31 09:47:59;;;;;;;7.10;3.00;;;26.80;99.90;;;;;;5269764;28;20032;-84
2022/05/31 09:50:30;;;;;;;6.25;3.35;;;26.70;99.90;;;;;;5269507;28;20033;-75
2022/05/31 09:57:05;;;;;;;6.13;3.30;;;27.30;99.90;;;;;;5269872;28;20047;-83
2022/05/31 09:58:42;;;;;;;6.13;2.80;;;27.00;99.90;;;;;;5269692;28;20081;-83
2022/05/31 10:01:22;;;;;;;5.32;2.38;;;27.00;99.90;;;;;;5269094;28;20086;-76
2022/05/31 10:04:00;;;;;;;6.40;3.30;;;26.80;99.90;;;;;;5285456;28;20028;-83
2022/05/31 10:06:33;;;;;;;6.28;2.83;;;26.90;99.90;;;;;;5290249;28;20052;-83
2022/05/31 10:09:16;;;;;;;7.18;3.00;;;27.00;99.90;;;;;;5290270;28;20020;-83
2022/05/31 10:11:49;;;;;;;5.97;3.08;;;26.80;99.90;;;;;;5290395;28;20034;-82
2022/05/31 10:14:25;;;;;;;4.15;3.13;;;27.10;99.90;;;;;;5290344;28;20832;-77
2022/05/31 10:17:32;;;;;;;3.88;2.58;;;27.50;99.90;;;;;;5290141;28;20451;-83
2022/05/31 10:20:34;;;;;;;6.07;2.85;;;26.70;99.90;;;;;;5290091;28;20031;-83
2022/05/31 10:23:15;;;;;;;7.47;3.13;;;27.20;99.90;;;;;;5274765;28;20061;-83
2022/05/31 10:25:55;;;;;;;5.40;3.30;;;26.90;99.90;;;;;;5269030;28;20495;-83
2022/05/31 10:28:37;;;;;;;4.13;3.00;;;27.00;99.90;;;;;;5267699;28;20020;-83
2022/05/31 10:31:33;;;;;;;5.03;3.20;;;26.80;99.90;;;;;;5268975;28;20235;-78
2022/05/31 10:34:24;;;;;;;4.55;2.90;;;27.60;99.90;;;;;;5250601;28;20085;-80
2022/05/31 10:36:58;;;;;;;6.57;3.22;;;27.10;99.90;;;;;;5268798;28;20536;-82
2022/05/31 10:39:36;;;;;;;4.47;2.90;;;26.90;99.90;;;;;;5268645;28;20035;-83
2022/05/31 10:42:11;;;;;;;5.15;2.80;;;27.10;99.90;;;;;;5268561;28;20024;-83
2022/05/31 10:44:51;;;;;;;5.82;2.70;;;27.00;99.90;;;;;;5268112;28;20024;-85
2022/05/31 10:47:24;;;;;;;3.60;2.90;;;27.60;99.90;;;;;;5268385;28;20023;-84
2022/05/31 10:49:55;;;;;;;5.45;3.33;;;27.70;99.90;;;;;;5268494;28;20040;-81
2022/05/31 10:52:38;;;;;;;5.10;3.20;;;27.70;99.90;;;;;;5268545;28;20032;-76
2022/05/31 10:55:22;;;;;;;5.93;3.15;;;27.50;99.90;;;;;;5268801;28;20023;-84
2022/05/31 10:57:53;;;;;;;3.45;2.80;;;27.50;99.90;;;;;;5250437;28;20521;-85
2022/05/31 11:00:42;;;;;;;3.75;3.13;;;27.50;99.90;;;;;;5268147;28;20048;-85
2022/05/31 11:03:21;;;;;;;5.45;3.22;;;27.40;99.90;;;;;;5268549;28;20032;-84
2022/05/31 11:06:10;;;;;;;5.22;2.50;;;27.40;99.90;;;;;;5268384;28;20036;-80
2022/05/31 11:12:21;;;;;;;6.18;3.20;;;27.60;99.90;;;;;;5234283;28;20051;-85
2022/05/31 11:15:02;;;;;;;4.65;2.72;;;28.10;99.90;;;;;;5268420;28;20036;-85
2022/05/31 11:18:02;;;;;;;4.80;2.63;;;27.70;99.90;;;;;;5268401;28;20141;-80
2022/05/31 11:20:59;;;;;;;6.63;2.78;;;28.20;99.90;;;;;;5268274;28;20034;-83
2022/05/31 11:24:08;;;;;;;4.03;2.80;;;27.20;99.90;;;;;;5268358;28;20371;-85
2022/05/31 11:26:41;;;;;;;6.38;2.65;;;27.80;99.90;;;;;;5277428;28;20465;-85
2022/05/31 11:29:30;;;;;;;5.90;2.60;;;27.70;99.90;;;;;;5273796;28;20020;-83
2022/05/31 11:32:25;;;;;;;3.30;2.60;;;27.70;99.90;;;;;;5268499;28;20486;-81
2022/05/31 11:35:15;;;;;;;3.55;2.63;;;27.70;99.90;;;;;;5268314;28;20036;-85
2022/05/31 11:38:20;;;;;;;4.68;2.60;;;27.80;99.90;;;;;;5250295;28;20115;-80
2022/05/31 11:41:09;;;;;;;6.70;3.45;;;27.70;99.90;;;;;;5271535;28;20067;-80
2022/05/31 11:44:08;;;;;;;8.10;3.33;;;27.70;99.90;;;;;;5272185;28;20051;-85
2022/05/31 11:46:46;;;;;;;3.67;2.77;;;27.70;99.90;;;;;;5253918;28;20348;-84
2022/05/31 11:49:38;;;;;;;3.92;2.65;;;28.00;99.90;;;;;;5271850;28;20047;-84
2022/05/31 11:52:27;;;;;;;4.90;3.08;;;27.60;99.90;;;;;;5271873;28;20027;-85
2022/05/31 11:55:25;;;;;;;3.63;2.65;;;28.40;99.90;;;;;;5271896;28;20043;-82
2022/05/31 11:58:14;;;;;;;9.02;2.83;;;28.00;99.90;;;;;;5271770;28;20055;-82
2022/05/31 12:01:02;;;;;;;3.97;2.40;;;28.10;99.90;;;;;;5271462;28;20075;-85
2022/05/31 12:04:01;;;;;;;4.63;2.70;;;28.00;99.90;;;;;;5271824;28;20036;-84
2022/05/31 12:06:43;;;;;;;3.50;2.70;;;27.90;99.90;;;;;;5271471;28;20032;-83
2022/05/31 12:09:27;;;;;;;4.97;2.65;;;28.00;99.90;;;;;;5271715;28;20027;-85
2022/05/31 12:12:08;;;;;;;6.28;2.92;;;27.80;99.90;;;;;;5252836;28;20020;-84
2022/05/31 12:15:07;;;;;;;3.45;2.35;;;27.50;99.90;;;;;;5271048;28;20038;-86
2022/05/31 12:18:01;;;;;;;4.00;2.50;;;27.50;99.90;;;;;;5258631;28;20035;-84
2022/05/31 12:20:38;;;;;;;5.97;3.13;;;27.90;99.90;;;;;;5270855;28;20020;-85
2022/05/31 12:23:32;;;;;;;4.95;2.80;;;27.90;99.90;;;;;;5271219;28;20089;-85
2022/05/31 12:26:04;;;;;;;6.30;2.72;;;27.80;99.90;;;;;;5271028;28;20028;-84
2022/05/31 12:28:53;;;;;;;2.85;2.50;;;27.80;99.90;;;;;;5271192;28;20024;-85
2022/05/31 12:31:26;;;;;;;6.60;2.88;;;28.30;99.90;;;;;;5271149;28;20111;-75
2022/05/31 12:34:32;;;;;;;3.33;2.60;;;28.10;99.90;;;;;;5271027;28;20093;-85
2022/05/31 12:37:11;;;;;;;3.35;2.60;;;27.80;99.90;;;;;;5252812;28;20024;-84
2022/05/31 12:39:43;;;;;;;;;;;27.80;99.90;;;;;;5271581;28;20016;-84
2022/05/31 12:42:14;;;;;;;5.07;2.53;;;27.00;99.90;;;;;;5271037;28;19994;-84
2022/05/31 12:44:47;;;;;;;4.80;2.92;;;27.80;99.90;;;;;;5270752;28;20120;-79
2022/05/31 12:47:35;;;;;;;3.97;2.53;;;27.90;99.90;;;;;;5270888;28;20035;-85
2022/05/31 12:50:10;;;;;;;3.63;2.63;;;27.30;99.90;;;;;;5270872;28;20051;-84
2022/05/31 12:55:42;;;;;;;6.88;2.70;;;27.80;99.90;;;;;;5270773;28;20372;-85
2022/05/31 12:58:35;;;;;;;5.95;2.38;;;28.10;99.90;;;;;;5270620;28;20016;-84
2022/05/31 13:01:12;;;;;;;4.07;2.67;;;28.00;99.90;;;;;;5270365;28;20634;-83
2022/05/31 13:03:42;;;;;;;4.38;2.78;;;27.10;99.90;;;;;;5270487;28;20032;-84
2022/05/31 13:06:35;;;;;;;5.40;2.90;;;27.60;99.90;;;;;;5270340;28;20045;-85
2022/05/31 13:09:25;;;;;;;6.75;2.67;;;28.00;99.90;;;;;;5270347;28;20024;-82
2022/05/31 13:20:39;;;;;;;6.22;3.47;;;27.10;99.90;;;;;;5270011;28;20036;-85
2022/05/31 13:23:20;;;;;;;6.80;3.35;;;28.10;99.90;;;;;;5269505;28;20040;-84
2022/05/31 13:25:54;;;;;;;5.47;2.88;;;28.10;99.90;;;;;;5269645;28;20024;-81
2022/05/31 13:28:30;;;;;;;5.53;3.05;;;28.00;99.90;;;;;;5269446;28;20036;-84
2022/05/31 13:31:13;;;;;;;5.15;2.58;;;27.80;99.90;;;;;;5269401;28;20024;-83
2022/05/31 13:33:47;;;;;;;3.35;2.50;;;27.60;99.90;;;;;;5269277;28;20050;-84
2022/05/31 13:36:32;;;;;;;5.97;2.90;;;27.50;99.90;;;;;;5269406;28;20172;-84
2022/05/31 13:39:07;;;;;;;4.57;2.88;;;27.60;99.90;;;;;;5269350;28;20079;-81
2022/05/31 13:42:06;;;;;;;4.25;2.38;;;28.00;99.90;;;;;;5261730;28;20031;-84
2022/05/31 13:44:39;;;;;;;3.20;2.53;;;27.50;99.90;;;;;;5287863;28;20141;-85
2022/05/31 13:47:15;;;;;;;3.65;2.38;;;27.30;99.90;;;;;;5290311;28;20058;-79
2022/05/31 13:49:48;;;;;;;6.90;2.60;;;27.20;99.90;;;;;;5290445;28;20012;-76
2022/05/31 13:52:21;;;;;;;3.55;2.53;;;27.10;99.90;;;;;;5290297;28;20028;-79
2022/05/31 13:55:05;;;;;;;5.50;2.35;;;27.70;99.90;;;;;;5290588;28;20031;-75
2022/05/31 13:57:36;;;;;;;4.38;2.67;;;27.90;99.90;;;;;;5272228;28;20043;-81
2022/05/31 14:00:07;;;;;;;6.25;3.45;;;27.80;99.90;;;;;;5269130;28;20400;-82
2022/05/31 14:02:53;;;;;;;12.10;6.07;;;27.50;99.90;;;;;;5277956;28;20028;-85
2022/05/31 14:05:29;;;;;;;8.88;5.22;;;27.70;99.90;;;;;;5269218;28;20032;-82